sensor_id;sensor_type;location;lat;lon;timestamp;temperature;humidity
48876;DHT22;34689;51.644;5.618;2022-12-04T00:01:35;2.50;99.90
48876;DHT22;34689;51.644;5.618;2022-12-04T00:04:01;2.50;99.90
48876;DHT22;34689;51.644;5.618;2022-12-04T00:06:28;2.50;99.90
48876;DHT22;34689;51.644;5.618;2022-12-04T00:08:54;2.50;99.90
48876;DHT22;34689;51.644;5.618;2022-12-04T00:11:23;2.50;99.90
48876;DHT22;34689;51.644;5.618;2022-12-04T00:13:49;2.50;99.90
48876;DHT22;34689;51.644;5.618;2022-12-04T00:16:21;2.50;99.90
48876;DHT22;34689;51.644;5.618;2022-12-04T00:18:48;2.50;99.90
48876;DHT22;34689;51.644;5.618;2022-12-04T00:21:15;2.50;99.90
48876;DHT22;34689;51.644;5.618;2022-12-04T00:23:42;2.50;99.90
48876;DHT22;34689;51.644;5.618;2022-12-04T00:26:13;2.50;99.90
48876;DHT22;34689;51.644;5.618;2022-12-04T00:28:40;2.50;99.90
48876;DHT22;34689;51.644;5.618;2022-12-04T00:31:17;2.50;99.90
48876;DHT22;34689;51.644;5.618;2022-12-04T00:33:43;2.50;99.90
48876;DHT22;34689;51.644;5.618;2022-12-04T00:36:14;2.50;99.90
48876;DHT22;34689;51.644;5.618;2022-12-04T00:38:40;2.50;99.90
48876;DHT22;34689;51.644;5.618;2022-12-04T00:41:08;2.50;99.90
48876;DHT22;34689;51.644;5.618;2022-12-04T00:43:34;2.50;99.90
48876;DHT22;34689;51.644;5.618;2022-12-04T00:46:00;2.50;99.90
48876;DHT22;34689;51.644;5.618;2022-12-04T00:48:26;2.50;99.90
48876;DHT22;34689;51.644;5.618;2022-12-04T00:50:52;2.50;99.90
48876;DHT22;34689;51.644;5.618;2022-12-04T00:53:18;2.50;99.90
48876;DHT22;34689;51.644;5.618;2022-12-04T00:55:44;2.50;99.90
48876;DHT22;34689;51.644;5.618;2022-12-04T00:58:10;2.40;99.90
48876;DHT22;34689;51.644;5.618;2022-12-04T01:00:37;2.50;99.90
48876;DHT22;34689;51.644;5.618;2022-12-04T01:03:03;2.40;99.90
48876;DHT22;34689;51.644;5.618;2022-12-04T01:05:29;2.40;99.90
48876;DHT22;34689;51.644;5.618;2022-12-04T01:07:55;2.40;99.90
48876;DHT22;34689;51.644;5.618;2022-12-04T01:10:21;2.40;99.90
48876;DHT22;34689;51.644;5.618;2022-12-04T01:12:50;2.40;99.90
48876;DHT22;34689;51.644;5.618;2022-12-04T01:15:18;2.40;99.90
48876;DHT22;34689;51.644;5.618;2022-12-04T01:17:44;2.40;99.90
48876;DHT22;34689;51.644;5.618;2022-12-04T01:20:11;2.40;99.90
48876;DHT22;34689;51.644;5.618;2022-12-04T01:22:37;2.40;99.90
48876;DHT22;34689;51.644;5.618;2022-12-04T01:25:03;2.40;99.90
48876;DHT22;34689;51.644;5.618;2022-12-04T01:27:29;2.50;99.90
48876;DHT22;34689;51.644;5.618;2022-12-04T01:29:54;2.40;99.90
48876;DHT22;34689;51.644;5.618;2022-12-04T01:32:20;2.40;99.90
48876;DHT22;34689;51.644;5.618;2022-12-04T01:34:46;2.40;99.90
48876;DHT22;34689;51.644;5.618;2022-12-04T01:37:11;2.50;99.90
48876;DHT22;34689;51.644;5.618;2022-12-04T01:39:37;2.40;99.90
48876;DHT22;34689;51.644;5.618;2022-12-04T01:42:03;2.40;99.90
48876;DHT22;34689;51.644;5.618;2022-12-04T01:44:29;2.40;99.90
48876;DHT22;34689;51.644;5.618;2022-12-04T01:46:57;2.40;99.90
48876;DHT22;34689;51.644;5.618;2022-12-04T01:49:45;2.40;99.90
48876;DHT22;34689;51.644;5.618;2022-12-04T01:52:18;2.40;99.90
48876;DHT22;34689;51.644;5.618;2022-12-04T01:54:47;2.40;99.90
48876;DHT22;34689;51.644;5.618;2022-12-04T01:57:17;2.40;99.90
48876;DHT22;34689;51.644;5.618;2022-12-04T01:59:52;2.40;99.90
48876;DHT22;34689;51.644;5.618;2022-12-04T02:02:23;2.40;99.90
48876;DHT22;34689;51.644;5.618;2022-12-04T02:04:50;2.40;99.90
48876;DHT22;34689;51.644;5.618;2022-12-04T02:07:16;2.40;99.90
48876;DHT22;34689;51.644;5.618;2022-12-04T02:09:42;2.40;99.90
48876;DHT22;34689;51.644;5.618;2022-12-04T02:12:26;2.40;99.90
48876;DHT22;34689;51.644;5.618;2022-12-04T02:15:18;2.40;99.90
48876;DHT22;34689;51.644;5.618;2022-12-04T02:18:01;2.40;99.90
48876;DHT22;34689;51.644;5.618;2022-12-04T02:23:27;2.40;99.90
48876;DHT22;34689;51.644;5.618;2022-12-04T02:28:53;2.40;99.90
48876;DHT22;34689;51.644;5.618;2022-12-04T02:31:42;2.40;99.90
48876;DHT22;34689;51.644;5.618;2022-12-04T02:34:42;2.40;99.90
48876;DHT22;34689;51.644;5.618;2022-12-04T02:37:20;2.40;99.90
48876;DHT22;34689;51.644;5.618;2022-12-04T02:39:55;2.40;99.90
48876;DHT22;34689;51.644;5.618;2022-12-04T02:42:43;2.40;99.90
48876;DHT22;34689;51.644;5.618;2022-12-04T02:45:16;2.40;99.90
48876;DHT22;34689;51.644;5.618;2022-12-04T02:47:44;2.40;99.90
48876;DHT22;34689;51.644;5.618;2022-12-04T02:50:18;2.40;99.90
48876;DHT22;34689;51.644;5.618;2022-12-04T02:52:56;2.40;99.90
48876;DHT22;34689;51.644;5.618;2022-12-04T02:55:28;2.40;99.90
48876;DHT22;34689;51.644;5.618;2022-12-04T02:57:58;2.40;99.90
48876;DHT22;34689;51.644;5.618;2022-12-04T03:00:25;2.40;99.90
48876;DHT22;34689;51.644;5.618;2022-12-04T03:02:57;2.40;99.90
48876;DHT22;34689;51.644;5.618;2022-12-04T03:05:33;2.40;99.90
48876;DHT22;34689;51.644;5.618;2022-12-04T03:08:06;2.30;99.90
48876;DHT22;34689;51.644;5.618;2022-12-04T03:10:42;2.40;99.90
48876;DHT22;34689;51.644;5.618;2022-12-04T03:13:18;2.40;99.90
48876;DHT22;34689;51.644;5.618;2022-12-04T03:15:53;2.40;99.90
48876;DHT22;34689;51.644;5.618;2022-12-04T03:18:33;2.40;99.90
48876;DHT22;34689;51.644;5.618;2022-12-04T03:21:03;2.30;99.90
48876;DHT22;34689;51.644;5.618;2022-12-04T03:23:33;2.40;99.90
48876;DHT22;34689;51.644;5.618;2022-12-04T03:26:11;2.40;99.90
48876;DHT22;34689;51.644;5.618;2022-12-04T03:28:50;2.40;99.90
48876;DHT22;34689;51.644;5.618;2022-12-04T03:31:31;2.30;99.90
48876;DHT22;34689;51.644;5.618;2022-12-04T03:34:02;2.30;99.90
48876;DHT22;34689;51.644;5.618;2022-12-04T03:36:35;2.30;99.90
48876;DHT22;34689;51.644;5.618;2022-12-04T03:39:24;2.30;99.90
48876;DHT22;34689;51.644;5.618;2022-12-04T03:41:59;2.40;99.90
48876;DHT22;34689;51.644;5.618;2022-12-04T03:44:48;2.30;99.90
48876;DHT22;34689;51.644;5.618;2022-12-04T03:47:25;2.30;99.90
48876;DHT22;34689;51.644;5.618;2022-12-04T03:50:10;2.30;99.90
48876;DHT22;34689;51.644;5.618;2022-12-04T03:53:03;2.30;99.90
48876;DHT22;34689;51.644;5.618;2022-12-04T03:55:50;2.30;99.90
48876;DHT22;34689;51.644;5.618;2022-12-04T03:58:24;2.30;99.90
48876;DHT22;34689;51.644;5.618;2022-12-04T04:00:55;2.30;99.90
48876;DHT22;34689;51.644;5.618;2022-12-04T04:03:28;2.30;99.90
48876;DHT22;34689;51.644;5.618;2022-12-04T04:05:56;2.40;99.90
48876;DHT22;34689;51.644;5.618;2022-12-04T04:08:27;2.30;99.90
48876;DHT22;34689;51.644;5.618;2022-12-04T04:11:17;2.30;99.90
48876;DHT22;34689;51.644;5.618;2022-12-04T04:14:13;2.30;99.90
48876;DHT22;34689;51.644;5.618;2022-12-04T04:17:03;2.30;99.90
48876;DHT22;34689;51.644;5.618;2022-12-04T04:19:53;2.30;99.90
48876;DHT22;34689;51.644;5.618;2022-12-04T04:22:39;2.30;99.90
48876;DHT22;34689;51.644;5.618;2022-12-04T04:25:26;2.30;99.90
48876;DHT22;34689;51.644;5.618;2022-12-04T04:27:57;2.30;99.90
48876;DHT22;34689;51.644;5.618;2022-12-04T04:30:24;2.40;99.90
48876;DHT22;34689;51.644;5.618;2022-12-04T04:33:15;2.40;99.90
48876;DHT22;34689;51.644;5.618;2022-12-04T04:36:13;2.40;99.90
48876;DHT22;34689;51.644;5.618;2022-12-04T04:38:52;2.40;99.90
48876;DHT22;34689;51.644;5.618;2022-12-04T04:41:25;2.30;99.90
48876;DHT22;34689;51.644;5.618;2022-12-04T04:44:03;2.30;99.90
48876;DHT22;34689;51.644;5.618;2022-12-04T04:46:34;2.40;99.90
48876;DHT22;34689;51.644;5.618;2022-12-04T04:49:03;2.30;99.90
48876;DHT22;34689;51.644;5.618;2022-12-04T04:51:32;2.30;99.90
48876;DHT22;34689;51.644;5.618;2022-12-04T04:54:02;2.40;99.90
48876;DHT22;34689;51.644;5.618;2022-12-04T04:56:29;2.40;99.90
48876;DHT22;34689;51.644;5.618;2022-12-04T04:58:55;2.30;99.90
48876;DHT22;34689;51.644;5.618;2022-12-04T05:01:23;2.30;99.90
48876;DHT22;34689;51.644;5.618;2022-12-04T05:03:50;2.30;99.90
48876;DHT22;34689;51.644;5.618;2022-12-04T05:06:15;2.30;99.90
48876;DHT22;34689;51.644;5.618;2022-12-04T05:08:41;2.30;99.90
48876;DHT22;34689;51.644;5.618;2022-12-04T05:11:14;2.30;99.90
48876;DHT22;34689;51.644;5.618;2022-12-04T05:13:40;2.30;99.90
48876;DHT22;34689;51.644;5.618;2022-12-04T05:16:10;2.30;99.90
48876;DHT22;34689;51.644;5.618;2022-12-04T05:18:36;2.40;99.90
48876;DHT22;34689;51.644;5.618;2022-12-04T05:21:10;2.30;99.90
48876;DHT22;34689;51.644;5.618;2022-12-04T05:23:43;2.30;99.90
48876;DHT22;34689;51.644;5.618;2022-12-04T05:26:08;2.30;99.90
48876;DHT22;34689;51.644;5.618;2022-12-04T05:28:34;2.30;99.90
48876;DHT22;34689;51.644;5.618;2022-12-04T05:31:01;2.30;99.90
48876;DHT22;34689;51.644;5.618;2022-12-04T05:33:28;2.40;99.90
48876;DHT22;34689;51.644;5.618;2022-12-04T05:36:05;2.40;99.90
48876;DHT22;34689;51.644;5.618;2022-12-04T05:38:31;2.40;99.90
48876;DHT22;34689;51.644;5.618;2022-12-04T05:41:01;2.40;99.90
48876;DHT22;34689;51.644;5.618;2022-12-04T05:43:27;2.40;99.90
48876;DHT22;34689;51.644;5.618;2022-12-04T05:45:53;2.40;99.90
48876;DHT22;34689;51.644;5.618;2022-12-04T05:48:19;2.40;99.90
48876;DHT22;34689;51.644;5.618;2022-12-04T05:50:45;2.40;99.90
48876;DHT22;34689;51.644;5.618;2022-12-04T05:53:10;2.40;99.90
48876;DHT22;34689;51.644;5.618;2022-12-04T05:55:36;2.40;99.90
48876;DHT22;34689;51.644;5.618;2022-12-04T05:58:02;2.40;99.90
48876;DHT22;34689;51.644;5.618;2022-12-04T06:00:28;2.40;99.90
48876;DHT22;34689;51.644;5.618;2022-12-04T06:02:54;2.40;99.90
48876;DHT22;34689;51.644;5.618;2022-12-04T06:05:20;2.40;99.90
48876;DHT22;34689;51.644;5.618;2022-12-04T06:07:46;2.40;99.90
48876;DHT22;34689;51.644;5.618;2022-12-04T06:10:12;2.40;99.90
48876;DHT22;34689;51.644;5.618;2022-12-04T06:12:38;2.40;99.90
48876;DHT22;34689;51.644;5.618;2022-12-04T06:15:04;2.40;99.90
48876;DHT22;34689;51.644;5.618;2022-12-04T06:17:30;2.40;99.90
48876;DHT22;34689;51.644;5.618;2022-12-04T06:19:55;2.40;99.90
48876;DHT22;34689;51.644;5.618;2022-12-04T06:22:21;2.40;99.90
48876;DHT22;34689;51.644;5.618;2022-12-04T06:24:47;2.40;99.90
48876;DHT22;34689;51.644;5.618;2022-12-04T06:27:13;2.40;99.90
48876;DHT22;34689;51.644;5.618;2022-12-04T06:29:38;2.40;99.90
48876;DHT22;34689;51.644;5.618;2022-12-04T06:32:04;2.40;99.90
48876;DHT22;34689;51.644;5.618;2022-12-04T06:34:30;2.40;99.90
48876;DHT22;34689;51.644;5.618;2022-12-04T06:36:56;2.40;99.90
48876;DHT22;34689;51.644;5.618;2022-12-04T06:39:22;2.40;99.90
48876;DHT22;34689;51.644;5.618;2022-12-04T06:41:48;2.40;99.90
48876;DHT22;34689;51.644;5.618;2022-12-04T06:44:15;2.40;99.90
48876;DHT22;34689;51.644;5.618;2022-12-04T06:46:41;2.40;99.90
48876;DHT22;34689;51.644;5.618;2022-12-04T06:49:08;2.40;99.90
48876;DHT22;34689;51.644;5.618;2022-12-04T06:51:36;2.40;99.90
48876;DHT22;34689;51.644;5.618;2022-12-04T06:54:02;2.40;99.90
48876;DHT22;34689;51.644;5.618;2022-12-04T06:56:30;2.40;99.90
48876;DHT22;34689;51.644;5.618;2022-12-04T06:58:59;2.40;99.90
48876;DHT22;34689;51.644;5.618;2022-12-04T07:01:30;2.40;99.90
48876;DHT22;34689;51.644;5.618;2022-12-04T07:03:56;2.40;99.90
48876;DHT22;34689;51.644;5.618;2022-12-04T07:06:33;2.40;99.90
48876;DHT22;34689;51.644;5.618;2022-12-04T07:09:09;2.40;99.90
48876;DHT22;34689;51.644;5.618;2022-12-04T07:11:35;2.40;99.90
48876;DHT22;34689;51.644;5.618;2022-12-04T07:14:01;2.40;99.90
48876;DHT22;34689;51.644;5.618;2022-12-04T07:16:27;2.40;99.90
48876;DHT22;34689;51.644;5.618;2022-12-04T07:18:53;2.40;99.90
48876;DHT22;34689;51.644;5.618;2022-12-04T07:21:23;2.40;99.90
48876;DHT22;34689;51.644;5.618;2022-12-04T07:23:55;2.30;99.90
48876;DHT22;34689;51.644;5.618;2022-12-04T07:26:22;2.40;99.90
48876;DHT22;34689;51.644;5.618;2022-12-04T07:28:49;2.40;99.90
48876;DHT22;34689;51.644;5.618;2022-12-04T07:31:19;2.40;99.90
48876;DHT22;34689;51.644;5.618;2022-12-04T07:33:45;2.40;99.90
48876;DHT22;34689;51.644;5.618;2022-12-04T07:36:17;2.40;99.90
48876;DHT22;34689;51.644;5.618;2022-12-04T07:38:44;2.40;99.90
48876;DHT22;34689;51.644;5.618;2022-12-04T07:41:12;2.40;99.90
48876;DHT22;34689;51.644;5.618;2022-12-04T07:43:38;2.40;99.90
48876;DHT22;34689;51.644;5.618;2022-12-04T07:46:15;2.40;99.90
48876;DHT22;34689;51.644;5.618;2022-12-04T07:48:42;2.40;99.90
48876;DHT22;34689;51.644;5.618;2022-12-04T07:51:10;2.40;99.90
48876;DHT22;34689;51.644;5.618;2022-12-04T07:53:37;2.40;99.90
48876;DHT22;34689;51.644;5.618;2022-12-04T07:56:04;2.40;99.90
48876;DHT22;34689;51.644;5.618;2022-12-04T07:58:30;2.40;99.90
48876;DHT22;34689;51.644;5.618;2022-12-04T08:01:04;2.40;99.90
48876;DHT22;34689;51.644;5.618;2022-12-04T08:03:30;2.40;99.90
48876;DHT22;34689;51.644;5.618;2022-12-04T08:05:59;2.40;99.90
48876;DHT22;34689;51.644;5.618;2022-12-04T08:08:25;2.40;99.90
48876;DHT22;34689;51.644;5.618;2022-12-04T08:10:50;2.40;99.90
48876;DHT22;34689;51.644;5.618;2022-12-04T08:13:16;2.40;99.90
48876;DHT22;34689;51.644;5.618;2022-12-04T08:15:42;2.40;99.90
48876;DHT22;34689;51.644;5.618;2022-12-04T08:18:07;2.40;99.90
48876;DHT22;34689;51.644;5.618;2022-12-04T08:20:33;2.40;99.90
48876;DHT22;34689;51.644;5.618;2022-12-04T08:22:59;2.40;99.90
48876;DHT22;34689;51.644;5.618;2022-12-04T08:25:24;2.40;99.90
48876;DHT22;34689;51.644;5.618;2022-12-04T08:27:50;2.40;99.90
48876;DHT22;34689;51.644;5.618;2022-12-04T08:30:16;2.40;99.90
48876;DHT22;34689;51.644;5.618;2022-12-04T08:32:41;2.40;99.90
48876;DHT22;34689;51.644;5.618;2022-12-04T08:35:07;2.50;99.90
48876;DHT22;34689;51.644;5.618;2022-12-04T08:37:33;2.50;99.90
48876;DHT22;34689;51.644;5.618;2022-12-04T08:39:58;2.50;99.90
48876;DHT22;34689;51.644;5.618;2022-12-04T08:42:24;2.50;99.90
48876;DHT22;34689;51.644;5.618;2022-12-04T08:44:49;2.50;99.90
48876;DHT22;34689;51.644;5.618;2022-12-04T08:47:15;2.50;99.90
48876;DHT22;34689;51.644;5.618;2022-12-04T08:49:41;2.50;99.90
48876;DHT22;34689;51.644;5.618;2022-12-04T08:52:06;2.60;99.90
48876;DHT22;34689;51.644;5.618;2022-12-04T08:54:32;2.50;99.90
48876;DHT22;34689;51.644;5.618;2022-12-04T08:56:58;2.60;99.90
48876;DHT22;34689;51.644;5.618;2022-12-04T08:59:23;2.60;99.90
48876;DHT22;34689;51.644;5.618;2022-12-04T09:01:50;2.60;99.90
48876;DHT22;34689;51.644;5.618;2022-12-04T09:04:16;2.60;99.90
48876;DHT22;34689;51.644;5.618;2022-12-04T09:06:42;2.60;99.90
48876;DHT22;34689;51.644;5.618;2022-12-04T09:09:07;2.60;99.90
48876;DHT22;34689;51.644;5.618;2022-12-04T09:11:33;2.60;99.90
48876;DHT22;34689;51.644;5.618;2022-12-04T09:14:01;2.60;99.90
48876;DHT22;34689;51.644;5.618;2022-12-04T09:16:27;2.60;99.90
48876;DHT22;34689;51.644;5.618;2022-12-04T09:18:53;2.60;99.90
48876;DHT22;34689;51.644;5.618;2022-12-04T09:21:20;2.60;99.90
48876;DHT22;34689;51.644;5.618;2022-12-04T09:23:46;2.60;99.90
48876;DHT22;34689;51.644;5.618;2022-12-04T09:26:31;2.60;99.90
48876;DHT22;34689;51.644;5.618;2022-12-04T09:28:59;2.60;99.90
48876;DHT22;34689;51.644;5.618;2022-12-04T09:31:26;2.70;99.90
48876;DHT22;34689;51.644;5.618;2022-12-04T09:33:52;2.70;99.90
48876;DHT22;34689;51.644;5.618;2022-12-04T09:36:18;2.70;99.90
48876;DHT22;34689;51.644;5.618;2022-12-04T09:38:46;2.70;99.90
48876;DHT22;34689;51.644;5.618;2022-12-04T09:47:00;2.60;99.90
48876;DHT22;34689;51.644;5.618;2022-12-04T09:49:57;2.60;99.90
48876;DHT22;34689;51.644;5.618;2022-12-04T09:55:27;2.60;99.90
48876;DHT22;34689;51.644;5.618;2022-12-04T09:57:56;2.60;99.90
48876;DHT22;34689;51.644;5.618;2022-12-04T10:00:24;2.60;99.90
48876;DHT22;34689;51.644;5.618;2022-12-04T10:03:05;2.60;99.90
48876;DHT22;34689;51.644;5.618;2022-12-04T10:08:26;2.60;99.90
48876;DHT22;34689;51.644;5.618;2022-12-04T10:11:07;2.60;99.90
48876;DHT22;34689;51.644;5.618;2022-12-04T10:13:56;2.60;99.90
48876;DHT22;34689;51.644;5.618;2022-12-04T10:25:20;2.60;99.90
48876;DHT22;34689;51.644;5.618;2022-12-04T10:28:03;2.60;99.90
48876;DHT22;34689;51.644;5.618;2022-12-04T10:30:34;2.60;99.90
48876;DHT22;34689;51.644;5.618;2022-12-04T10:35:43;2.60;99.90
48876;DHT22;34689;51.644;5.618;2022-12-04T10:40:59;2.60;99.90
48876;DHT22;34689;51.644;5.618;2022-12-04T10:43:44;2.60;99.90
48876;DHT22;34689;51.644;5.618;2022-12-04T10:46:18;2.70;99.90
48876;DHT22;34689;51.644;5.618;2022-12-04T10:48:48;2.60;99.90
48876;DHT22;34689;51.644;5.618;2022-12-04T10:51:16;2.60;99.90
48876;DHT22;34689;51.644;5.618;2022-12-04T10:53:43;2.60;99.90
48876;DHT22;34689;51.644;5.618;2022-12-04T10:56:18;2.60;99.90
48876;DHT22;34689;51.644;5.618;2022-12-04T10:59:04;2.60;99.90
48876;DHT22;34689;51.644;5.618;2022-12-04T11:01:32;2.60;99.90
48876;DHT22;34689;51.644;5.618;2022-12-04T11:04:01;2.60;99.90
48876;DHT22;34689;51.644;5.618;2022-12-04T11:06:28;2.60;99.90
48876;DHT22;34689;51.644;5.618;2022-12-04T11:08:55;2.60;99.90
48876;DHT22;34689;51.644;5.618;2022-12-04T11:11:29;2.60;99.90
48876;DHT22;34689;51.644;5.618;2022-12-04T11:14:15;2.60;99.90
48876;DHT22;34689;51.644;5.618;2022-12-04T11:16:44;2.60;99.90
48876;DHT22;34689;51.644;5.618;2022-12-04T11:19:32;2.60;99.90
48876;DHT22;34689;51.644;5.618;2022-12-04T11:22:18;2.70;99.90
48876;DHT22;34689;51.644;5.618;2022-12-04T11:24:50;2.70;99.90
48876;DHT22;34689;51.644;5.618;2022-12-04T11:27:28;2.70;99.90
48876;DHT22;34689;51.644;5.618;2022-12-04T11:29:57;2.70;99.90
48876;DHT22;34689;51.644;5.618;2022-12-04T11:32:30;2.70;99.90
48876;DHT22;34689;51.644;5.618;2022-12-04T11:35:02;2.70;99.90
48876;DHT22;34689;51.644;5.618;2022-12-04T11:37:32;2.70;99.90
48876;DHT22;34689;51.644;5.618;2022-12-04T11:40:00;2.70;99.90
48876;DHT22;34689;51.644;5.618;2022-12-04T11:42:29;2.70;99.90
48876;DHT22;34689;51.644;5.618;2022-12-04T11:45:00;2.60;99.90
48876;DHT22;34689;51.644;5.618;2022-12-04T11:47:29;2.70;99.90
48876;DHT22;34689;51.644;5.618;2022-12-04T11:55:18;2.70;99.90
48876;DHT22;34689;51.644;5.618;2022-12-04T12:21:15;2.70;99.90
48876;DHT22;34689;51.644;5.618;2022-12-04T12:29:25;2.70;99.90
48876;DHT22;34689;51.644;5.618;2022-12-04T12:32:21;2.70;99.90
48876;DHT22;34689;51.644;5.618;2022-12-04T12:34:49;2.70;99.90
48876;DHT22;34689;51.644;5.618;2022-12-04T12:37:33;2.70;99.90
48876;DHT22;34689;51.644;5.618;2022-12-04T12:40:20;2.70;99.90
48876;DHT22;34689;51.644;5.618;2022-12-04T12:42:56;2.80;99.90
48876;DHT22;34689;51.644;5.618;2022-12-04T12:48:30;2.80;99.90
48876;DHT22;34689;51.644;5.618;2022-12-04T12:53:35;2.80;99.90
48876;DHT22;34689;51.644;5.618;2022-12-04T12:56:04;2.80;99.90
48876;DHT22;34689;51.644;5.618;2022-12-04T12:58:41;2.80;99.90
48876;DHT22;34689;51.644;5.618;2022-12-04T13:01:44;2.80;99.90
48876;DHT22;34689;51.644;5.618;2022-12-04T13:04:09;2.80;99.90
48876;DHT22;34689;51.644;5.618;2022-12-04T13:06:39;2.80;99.90
48876;DHT22;34689;51.644;5.618;2022-12-04T13:09:33;2.80;99.90
48876;DHT22;34689;51.644;5.618;2022-12-04T13:12:07;2.80;99.90
48876;DHT22;34689;51.644;5.618;2022-12-04T13:14:36;2.90;99.90
48876;DHT22;34689;51.644;5.618;2022-12-04T13:17:09;2.80;99.90
48876;DHT22;34689;51.644;5.618;2022-12-04T13:19:41;2.80;99.90
48876;DHT22;34689;51.644;5.618;2022-12-04T13:31:00;2.80;99.90
48876;DHT22;34689;51.644;5.618;2022-12-04T13:41:19;2.90;99.90
48876;DHT22;34689;51.644;5.618;2022-12-04T13:43:46;2.90;99.90
48876;DHT22;34689;51.644;5.618;2022-12-04T13:48:53;2.90;99.90
48876;DHT22;34689;51.644;5.618;2022-12-04T13:59:42;2.90;99.90
48876;DHT22;34689;51.644;5.618;2022-12-04T14:02:30;2.90;99.90
48876;DHT22;34689;51.644;5.618;2022-12-04T14:05:08;2.90;99.90
48876;DHT22;34689;51.644;5.618;2022-12-04T14:07:37;2.90;99.90
48876;DHT22;34689;51.644;5.618;2022-12-04T14:10:22;2.90;99.90
48876;DHT22;34689;51.644;5.618;2022-12-04T14:13:03;2.90;99.90
48876;DHT22;34689;51.644;5.618;2022-12-04T14:15:32;2.90;99.90
48876;DHT22;34689;51.644;5.618;2022-12-04T14:18:00;2.90;99.90
48876;DHT22;34689;51.644;5.618;2022-12-04T14:20:30;2.90;99.90
48876;DHT22;34689;51.644;5.618;2022-12-04T14:25:37;2.90;99.90
48876;DHT22;34689;51.644;5.618;2022-12-04T14:33:51;2.90;99.90
48876;DHT22;34689;51.644;5.618;2022-12-04T14:39:04;2.90;99.90
48876;DHT22;34689;51.644;5.618;2022-12-04T14:41:32;3.00;99.90
48876;DHT22;34689;51.644;5.618;2022-12-04T14:43:57;2.90;99.90
48876;DHT22;34689;51.644;5.618;2022-12-04T14:46:30;2.90;99.90
48876;DHT22;34689;51.644;5.618;2022-12-04T14:51:39;2.90;99.90
48876;DHT22;34689;51.644;5.618;2022-12-04T14:59:43;2.90;99.90
48876;DHT22;34689;51.644;5.618;2022-12-04T15:02:16;2.90;99.90
48876;DHT22;34689;51.644;5.618;2022-12-04T15:04:42;3.00;99.90
48876;DHT22;34689;51.644;5.618;2022-12-04T15:07:18;3.00;99.90
48876;DHT22;34689;51.644;5.618;2022-12-04T15:09:52;2.90;99.90
48876;DHT22;34689;51.644;5.618;2022-12-04T15:12:54;3.00;99.90
48876;DHT22;34689;51.644;5.618;2022-12-04T15:15:25;3.00;99.90
48876;DHT22;34689;51.644;5.618;2022-12-04T15:20:30;2.90;99.90
48876;DHT22;34689;51.644;5.618;2022-12-04T15:22:56;2.90;99.90
48876;DHT22;34689;51.644;5.618;2022-12-04T15:25:36;2.90;99.90
48876;DHT22;34689;51.644;5.618;2022-12-04T15:28:18;2.90;99.90
48876;DHT22;34689;51.644;5.618;2022-12-04T15:30:46;2.90;99.90
48876;DHT22;34689;51.644;5.618;2022-12-04T15:33:22;2.90;99.90
48876;DHT22;34689;51.644;5.618;2022-12-04T15:35:59;2.90;99.90
48876;DHT22;34689;51.644;5.618;2022-12-04T15:38:25;3.00;99.90
48876;DHT22;34689;51.644;5.618;2022-12-04T15:40:54;2.90;99.90
48876;DHT22;34689;51.644;5.618;2022-12-04T15:43:37;2.90;99.90
48876;DHT22;34689;51.644;5.618;2022-12-04T15:46:13;2.90;99.90
48876;DHT22;34689;51.644;5.618;2022-12-04T15:48:39;2.90;99.90
48876;DHT22;34689;51.644;5.618;2022-12-04T15:51:06;2.90;99.90
48876;DHT22;34689;51.644;5.618;2022-12-04T15:53:35;2.90;99.90
48876;DHT22;34689;51.644;5.618;2022-12-04T15:56:08;2.90;99.90
48876;DHT22;34689;51.644;5.618;2022-12-04T15:58:40;3.00;99.90
48876;DHT22;34689;51.644;5.618;2022-12-04T16:01:19;3.00;99.90
48876;DHT22;34689;51.644;5.618;2022-12-04T16:03:50;2.90;99.90
48876;DHT22;34689;51.644;5.618;2022-12-04T16:06:28;3.00;99.90
48876;DHT22;34689;51.644;5.618;2022-12-04T16:08:59;3.00;99.90
48876;DHT22;34689;51.644;5.618;2022-12-04T16:11:37;3.00;99.90
48876;DHT22;34689;51.644;5.618;2022-12-04T16:16:38;3.00;99.90
48876;DHT22;34689;51.644;5.618;2022-12-04T16:19:20;3.00;99.90
48876;DHT22;34689;51.644;5.618;2022-12-04T16:21:48;3.00;99.90
48876;DHT22;34689;51.644;5.618;2022-12-04T16:24:14;3.00;99.90
48876;DHT22;34689;51.644;5.618;2022-12-04T16:26:40;3.00;99.90
48876;DHT22;34689;51.644;5.618;2022-12-04T16:29:06;3.00;99.90
48876;DHT22;34689;51.644;5.618;2022-12-04T16:31:32;3.00;99.90
48876;DHT22;34689;51.644;5.618;2022-12-04T16:33:57;3.00;99.90
48876;DHT22;34689;51.644;5.618;2022-12-04T16:36:23;3.00;99.90
48876;DHT22;34689;51.644;5.618;2022-12-04T16:38:48;3.00;99.90
48876;DHT22;34689;51.644;5.618;2022-12-04T16:41:18;3.00;99.90
48876;DHT22;34689;51.644;5.618;2022-12-04T16:43:44;3.00;99.90
48876;DHT22;34689;51.644;5.618;2022-12-04T16:46:17;3.00;99.90
48876;DHT22;34689;51.644;5.618;2022-12-04T16:48:43;3.00;99.90
48876;DHT22;34689;51.644;5.618;2022-12-04T16:51:21;3.00;99.90
48876;DHT22;34689;51.644;5.618;2022-12-04T16:53:48;3.10;99.90
48876;DHT22;34689;51.644;5.618;2022-12-04T16:56:14;3.10;99.90
48876;DHT22;34689;51.644;5.618;2022-12-04T16:58:39;3.00;99.90
48876;DHT22;34689;51.644;5.618;2022-12-04T17:01:23;3.10;99.90
48876;DHT22;34689;51.644;5.618;2022-12-04T17:03:50;3.10;99.90
48876;DHT22;34689;51.644;5.618;2022-12-04T17:06:16;3.10;99.90
48876;DHT22;34689;51.644;5.618;2022-12-04T17:08:42;3.10;99.90
48876;DHT22;34689;51.644;5.618;2022-12-04T17:11:12;3.10;99.90
48876;DHT22;34689;51.644;5.618;2022-12-04T17:13:39;3.10;99.90
48876;DHT22;34689;51.644;5.618;2022-12-04T17:16:04;3.10;99.90
48876;DHT22;34689;51.644;5.618;2022-12-04T17:18:30;3.10;99.90
48876;DHT22;34689;51.644;5.618;2022-12-04T17:20:56;3.10;99.90
48876;DHT22;34689;51.644;5.618;2022-12-04T17:23:23;3.10;99.90
48876;DHT22;34689;51.644;5.618;2022-12-04T17:25:48;3.10;99.90
48876;DHT22;34689;51.644;5.618;2022-12-04T17:28:14;3.10;99.90
48876;DHT22;34689;51.644;5.618;2022-12-04T17:30:43;3.10;99.90
48876;DHT22;34689;51.644;5.618;2022-12-04T17:33:09;3.00;99.90
48876;DHT22;34689;51.644;5.618;2022-12-04T17:35:35;3.00;99.90
48876;DHT22;34689;51.644;5.618;2022-12-04T17:38:00;3.10;99.90
48876;DHT22;34689;51.644;5.618;2022-12-04T17:40:26;3.00;99.90
48876;DHT22;34689;51.644;5.618;2022-12-04T17:42:51;3.10;99.90
48876;DHT22;34689;51.644;5.618;2022-12-04T17:45:17;3.10;99.90
48876;DHT22;34689;51.644;5.618;2022-12-04T17:47:43;3.00;99.90
48876;DHT22;34689;51.644;5.618;2022-12-04T17:50:09;3.00;99.90
48876;DHT22;34689;51.644;5.618;2022-12-04T17:52:35;3.00;99.90
48876;DHT22;34689;51.644;5.618;2022-12-04T17:55:01;3.00;99.90
48876;DHT22;34689;51.644;5.618;2022-12-04T17:57:27;3.00;99.90
48876;DHT22;34689;51.644;5.618;2022-12-04T17:59:52;3.00;99.90
48876;DHT22;34689;51.644;5.618;2022-12-04T18:02:18;3.00;99.90
48876;DHT22;34689;51.644;5.618;2022-12-04T18:04:44;3.00;99.90
48876;DHT22;34689;51.644;5.618;2022-12-04T18:07:09;3.00;99.90
48876;DHT22;34689;51.644;5.618;2022-12-04T18:09:36;3.00;99.90
48876;DHT22;34689;51.644;5.618;2022-12-04T18:12:02;3.00;99.90